Latest Coastal Weather Observations for Sydney Harbour

IDN60701

Issued at 8:42 pm EDT Sunday 7 March 2021 (issued every 10 minutes, with the page automatically refreshed every 10 minutes)

About coastal observations | Map of coastal stations | Coastal observations for NSW | Marine services | Other Formats
Station Details ID: 066196 Name: WEDDING CAKE WEST Lat: -33.84 Lon: 151.26 Height: 6.0 m
Data from the previous 72 hours. | See also: Recent months at Sydney Harbour
Date/Time
EDT
Wind Sea
Height
m
Swell Vis
km
Cloud Weather Temp
°C
Press
MSL
hPa
Rain since
9am
mm
Dir  Spd
kts
Gust
kts
Height
m
Period
s
Dir
07/08:30pm NNE 18 22 - - - - - - - 23.2 - -
07/08:00pm NNE 19 24 - - - - - - - 23.2 - -
07/07:30pm NNE 18 22 - - - - - - - 23.1 - -
07/07:00pm NE 16 20 - - - - - - - 23.1 - -
07/06:30pm NNE 18 21 - - - - - - - 23.0 - -
07/06:00pm NNE 17 20 - - - - - - - 23.0 - -
07/05:30pm NNE 17 20 - - - - - - - 22.9 - -
07/05:00pm NNE 16 19 - - - - - - - 22.9 - -
07/04:30pm NE 15 17 - - - - - - - 22.8 - -
07/04:00pm NE 14 16 - - - - - - - 22.5 - -
07/03:30pm NE 13 15 - - - - - - - 22.4 - -
07/03:00pm NE 13 15 - - - - - - - 22.4 - -
07/02:30pm NE 12 14 - - - - - - - 22.3 - -
07/02:00pm ENE 11 14 - - - - - - - 22.3 - -
07/01:30pm ENE 11 13 - - - - - - - 21.9 - -
07/01:00pm ENE 10 13 - - - - - - - 21.7 - -
07/12:30pm ENE 9 11 - - - - - - - 22.0 - -
07/12:00pm E 7 9 - - - - - - - 21.8 - -
07/11:30am ENE 4 5 - - - - - - - 21.2 - -
07/11:00am S 4 5 - - - - - - - 20.9 - -
07/10:30am SSW 5 6 - - - - - - - 20.5 - -
07/10:00am WSW 7 8 - - - - - - - 19.9 - -
07/09:30am SW 8 9 - - - - - - - 19.4 - -
07/09:00am WSW 7 8 - - - - - - - 19.0 - -
07/08:30am W 8 10 - - - - - - - 18.4 - -
07/08:00am W 7 9 - - - - - - - 18.2 - -
07/07:30am W 7 9 - - - - - - - 18.0 - -
07/07:00am W 6 7 - - - - - - - 18.0 - -
07/06:30am WSW 7 9 - - - - - - - 18.1 - -
07/06:00am W 5 7 - - - - - - - 18.4 - -
07/05:30am WSW 8 10 - - - - - - - 18.7 - -
07/05:00am W 9 10 - - - - - - - 18.9 - -
07/04:30am W 6 8 - - - - - - - 19.9 - -
07/04:00am SSW 5 6 - - - - - - - 20.2 - -
07/03:30am SSE 11 14 - - - - - - - 20.0 - -
07/03:00am S 11 15 - - - - - - - 20.0 - -
07/02:30am S 7 9 - - - - - - - 20.4 - -
07/02:00am S 8 9 - - - - - - - 20.9 - -
07/01:30am SSE 7 9 - - - - - - - 21.0 - -
07/01:00am SSE 6 8 - - - - - - - 21.0 - -
07/12:30am SSE 7 9 - - - - - - - 21.0 - -
07/12:00am SSE 7 9 - - - - - - - 21.1 - -
 
Date/Time
EDT
Wind Sea
Height
m
Swell Vis
km
Cloud Weather Temp
°C
Press
MSL
hPa
Rain since
9am
mm
Dir  Spd
kts
Gust
kts
Height
m
Period
s
Dir
06/11:30pm SSE 8 11 - - - - - - - 21.0 - -
06/11:00pm SSE 10 12 - - - - - - - 21.1 - -
06/10:30pm SSE 9 11 - - - - - - - 21.0 - -
06/10:00pm SSE 8 11 - - - - - - - 21.0 - -
06/09:30pm SSE 8 10 - - - - - - - 21.0 - -
06/09:00pm SSE 9 11 - - - - - - - 21.1 - -
06/08:30pm SSE 8 11 - - - - - - - 21.0 - -
06/08:00pm SSE 9 11 - - - - - - - 21.0 - -
06/07:30pm SE 9 12 - - - - - - - 20.9 - -
06/07:00pm SSE 12 16 - - - - - - - 20.9 - -
06/06:30pm SSE 12 19 - - - - - - - 20.8 - -
06/06:00pm SSE 13 19 - - - - - - - 20.9 - -
06/05:30pm SSE 11 14 - - - - - - - 21.3 - -
06/05:00pm SSE 13 18 - - - - - - - 21.1 - -
06/04:30pm SSE 12 18 - - - - - - - 21.4 - -
06/04:00pm S 12 17 - - - - - - - 21.1 - -
06/03:30pm SSE 12 17 - - - - - - - 21.0 - -
06/03:00pm S 13 18 - - - - - - - 21.1 - -
06/02:30pm S 14 18 - - - - - - - 21.0 - -
06/02:00pm SSE 13 16 - - - - - - - 21.3 - -
06/01:30pm SSE 14 17 - - - - - - - 20.7 - -
06/01:00pm SSE 14 19 - - - - - - - 20.7 - -
06/12:30pm SSE 13 16 - - - - - - - 20.5 - -
06/12:00pm S 14 19 - - - - - - - 20.4 - -
06/11:30am S 15 18 - - - - - - - 20.5 - -
06/11:00am S 14 18 - - - - - - - 20.4 - -
06/10:30am S 14 19 - - - - - - - 20.0 - -
06/10:00am SSW 16 19 - - - - - - - 19.8 - -
06/09:30am SSW 15 18 - - - - - - - 20.1 - -
06/09:00am SSW 15 20 - - - - - - - 20.3 - -
06/08:30am SSW 13 17 - - - - - - - 20.0 - -
06/08:00am SSW 14 19 - - - - - - - 19.9 - -
06/07:30am SSW 13 17 - - - - - - - 19.5 - -
06/07:00am SSW 14 20 - - - - - - - 19.4 - -
06/06:30am SSW 14 17 - - - - - - - 19.4 - -
06/06:00am SSW 14 19 - - - - - - - 19.3 - -
06/05:30am SW 13 15 - - - - - - - 18.9 - -
06/05:00am SSW 16 21 - - - - - - - 19.2 - -
06/04:30am SSW 14 18 - - - - - - - 19.1 - -
06/04:00am SSW 15 20 - - - - - - - 19.2 - -
06/03:30am SSW 17 21 - - - - - - - 20.0 - -
06/03:00am S 15 20 - - - - - - - 20.0 - -
06/02:30am S 12 16 - - - - - - - 20.1 - -
06/02:00am SSW 15 18 - - - - - - - 20.3 - -
06/01:30am S 15 18 - - - - - - - 20.5 - -
06/01:00am S 13 16 - - - - - - - 20.1 - -
06/12:30am SSE 11 16 - - - - - - - 19.8 - -
06/12:00am SSE 8 13 - - - - - - - 19.7 - -
 
Date/Time
EDT
Wind Sea
Height
m
Swell Vis
km
Cloud Weather Temp
°C
Press
MSL
hPa
Rain since
9am
mm
Dir  Spd
kts
Gust
kts
Height
m
Period
s
Dir
05/11:30pm S 13 19 - - - - - - - 20.1 - -
05/11:00pm SSE 13 19 - - - - - - - 20.1 - -
05/10:30pm S 14 19 - - - - - - - 20.8 - -
05/10:00pm S 12 16 - - - - - - - 20.9 - -
05/09:30pm SSE 13 17 - - - - - - - 21.0 - -
05/09:00pm SSE 13 19 - - - - - - - 21.0 - -
05/08:30pm S 14 19 - - - - - - - 21.0 - -
05/08:00pm S 13 17 - - - - - - - 21.1 - -
05/07:30pm S 13 16 - - - - - - - 20.9 - -
05/07:00pm SSE 12 16 - - - - - - - 20.9 - -
05/06:30pm SSE 13 19 - - - - - - - 20.8 - -
05/06:00pm S 14 18 - - - - - - - 21.0 - -
05/05:30pm SSE 15 20 - - - - - - - 21.0 - -
05/05:00pm S 17 23 - - - - - - - 21.2 - -
05/04:30pm SSE 16 21 - - - - - - - 21.3 - -
05/04:00pm S 18 25 - - - - - - - 20.8 - -
05/03:30pm S 18 26 - - - - - - - 21.0 - -
05/03:00pm S 18 24 - - - - - - - 21.1 - -
05/02:30pm S 19 24 - - - - - - - 20.9 - -
05/02:00pm S 20 25 - - - - - - - 20.8 - -
05/01:30pm S 20 26 - - - - - - - 21.0 - -
05/01:13pm SSE 17 27 - - - - - - - 21.2 - -
05/01:00pm SSE 20 26 - - - - - - - 21.7 - -
05/12:30pm S 22 30 - - - - - - - 21.3 - -
05/12:00pm S 22 28 - - - - - - - 21.5 - -
05/11:30am S 21 27 - - - - - - - 21.7 - -
05/11:00am S 20 28 - - - - - - - 21.9 - -
05/10:30am SSW 17 22 - - - - - - - 22.3 - -
05/10:00am SSW 15 19 - - - - - - - 22.4 - -
05/09:30am SSW 15 19 - - - - - - - 22.5 - -
05/09:00am SW 12 15 - - - - - - - 21.9 - -
05/08:30am SW 13 16 - - - - - - - 21.5 - -
05/08:00am SW 13 15 - - - - - - - 21.5 - -
05/07:30am SW 13 16 - - - - - - - 21.2 - -
05/07:00am SW 12 14 - - - - - - - 21.6 - -
05/06:30am SW 14 17 - - - - - - - 21.4 - -
05/06:00am SSW 14 17 - - - - - - - 21.0 - -
05/05:30am SSW 15 19 - - - - - - - 21.1 - -
05/05:00am SSW 15 17 - - - - - - - 21.4 - -
05/04:30am SW 12 14 - - - - - - - 21.5 - -
05/04:00am WSW 10 12 - - - - - - - 22.4 - -
05/03:30am WSW 8 9 - - - - - - - 21.3 - -
05/03:00am WSW 10 12 - - - - - - - 21.7 - -
05/02:30am SW 7 8 - - - - - - - 21.6 - -
05/02:00am SW 5 6 - - - - - - - 21.6 - -
05/01:30am SW 3 4 - - - - - - - 21.6 - -
05/01:00am SSE 3 5 - - - - - - - 21.5 - -
05/12:30am N 4 6 - - - - - - - 21.3 - -
05/12:00am W 3 4 - - - - - - - 21.1 - -
 
Date/Time
EDT
Wind Sea
Height
m
Swell Vis
km
Cloud Weather Temp
°C
Press
MSL
hPa
Rain since
9am
mm
Dir  Spd
kts
Gust
kts
Height
m
Period
s
Dir
04/11:30pm W 3 4 - - - - - - - 20.9 - -
04/11:00pm NNW 6 8 - - - - - - - 21.6 - -
04/10:30pm N 10 14 - - - - - - - 22.2 - -
04/10:00pm N 8 10 - - - - - - - 22.2 - -
04/09:30pm N 12 14 - - - - - - - 22.5 - -
04/09:00pm N 12 15 - - - - - - - 22.8 - -

Other formats

Comma delimited format used in spreadsheet applications
http://www.bom.gov.au/fwo/IDN60701/IDN60701.95766.axf

JavaScript Object Notation format (JSON) in row-major order
http://www.bom.gov.au/fwo/IDN60701/IDN60701.95766.json

Data quality

Most of these data are generated automatically and are frequently updated. Quality checks on data are not normally performed. It is possible for incorrect values to appear. Refer to information at About Latest Weather Observations and please check the disclaimer before using these data.